Time;durP1;ratioP1;P1;durP2;ratioP2;P2;SDS_P1;SDS_P2;PMS_P1;PMS_P2;Temp;Humidity;BMP_temperature;BMP_pressure;BME280_temperature;BME280_humidity;BME280_pressure;Samples;Min_cycle;Max_cycle;Signal;HPM_P1;HPM_P2
2023/04/30 00:01:00;;;;;;;66.25;31.85;;;11.60;99.90;;;;;;4885037;29;20037;-93
2023/04/30 00:03:26;;;;;;;62.28;31.02;;;11.60;99.90;;;;;;4883777;29;20043;-96
2023/04/30 00:05:51;;;;;;;59.25;30.27;;;11.50;99.90;;;;;;4872645;29;20043;-94
2023/04/30 00:08:17;;;;;;;60.53;29.98;;;11.50;99.90;;;;;;4883961;29;20036;-95
2023/04/30 00:10:43;;;;;;;62.63;32.13;;;11.50;99.90;;;;;;4880254;29;20036;-90
2023/04/30 00:13:09;;;;;;;60.13;29.70;;;11.50;99.90;;;;;;4895604;29;20021;-89
2023/04/30 00:15:35;;;;;;;56.92;29.38;;;11.50;99.90;;;;;;4887133;29;20073;-88
2023/04/30 00:18:01;;;;;;;56.47;26.63;;;11.40;99.90;;;;;;4894842;29;20040;-88
2023/04/30 00:20:27;;;;;;;61.70;29.02;;;11.40;99.90;;;;;;4894551;29;20086;-88
2023/04/30 00:22:54;;;;;;;63.33;30.48;;;11.40;99.90;;;;;;4894462;29;20041;-88
2023/04/30 00:25:23;;;;;;;57.05;29.25;;;11.40;99.90;;;;;;4902418;29;20027;-88
2023/04/30 00:27:49;;;;;;;55.45;27.65;;;11.30;99.90;;;;;;4874530;29;20089;-88
2023/04/30 00:30:14;;;;;;;62.63;28.42;;;11.30;99.90;;;;;;4894784;29;20020;-94
2023/04/30 00:32:41;;;;;;;62.58;27.25;;;11.30;99.90;;;;;;4898390;29;20044;-96
2023/04/30 00:35:07;;;;;;;53.95;26.60;;;11.20;99.90;;;;;;4892900;29;20033;-94
2023/04/30 00:37:33;;;;;;;54.13;26.15;;;11.30;99.90;;;;;;4885104;29;20135;-91
2023/04/30 00:39:58;;;;;;;52.58;25.20;;;11.20;99.90;;;;;;4902790;29;20031;-89
2023/04/30 00:42:24;;;;;;;54.63;26.40;;;11.20;99.90;;;;;;4887497;29;20092;-89
2023/04/30 00:44:50;;;;;;;52.13;25.52;;;11.20;99.90;;;;;;4887748;29;20013;-89
2023/04/30 00:47:15;;;;;;;51.55;26.48;;;11.10;99.90;;;;;;4886507;29;20096;-93
2023/04/30 00:49:41;;;;;;;51.47;24.83;;;11.10;99.90;;;;;;4885510;29;20042;-93
2023/04/30 00:52:07;;;;;;;60.50;26.75;;;11.10;99.90;;;;;;4886634;29;20061;-95
2023/04/30 00:54:32;;;;;;;59.40;27.40;;;11.10;99.90;;;;;;4886735;29;20022;-92
2023/04/30 00:56:58;;;;;;;53.58;25.83;;;11.10;99.90;;;;;;4885679;29;20068;-95
2023/04/30 00:59:24;;;;;;;46.08;23.10;;;11.10;99.90;;;;;;4868297;29;20025;-94
2023/04/30 01:01:53;;;;;;;51.05;25.15;;;11.10;99.90;;;;;;4903214;29;20033;-91
2023/04/30 01:04:20;;;;;;;58.38;26.10;;;11.10;99.90;;;;;;4886869;29;20021;-89
2023/04/30 01:06:45;;;;;;;58.80;27.67;;;11.00;99.90;;;;;;4887194;29;20083;-88
2023/04/30 01:09:11;;;;;;;67.45;29.40;;;11.00;99.90;;;;;;4886886;29;20021;-89
2023/04/30 01:11:37;;;;;;;66.88;30.95;;;11.00;99.90;;;;;;4886834;29;20018;-88
2023/04/30 01:14:26;;;;;;;69.95;31.95;;;11.00;99.90;;;;;;4886539;29;20048;-92
2023/04/30 01:17:24;;;;;;;68.65;30.20;;;11.00;99.90;;;;;;4889102;29;20032;-93
2023/04/30 01:19:50;;;;;;;66.65;30.25;;;11.00;99.90;;;;;;4889624;29;20037;-91
2023/04/30 01:22:27;;;;;;;60.70;27.67;;;11.00;99.90;;;;;;4887817;29;20048;-92
2023/04/30 01:25:10;;;;;;;59.85;28.00;;;11.00;99.90;;;;;;4890257;29;20073;-89
2023/04/30 01:28:00;;;;;;;58.80;28.52;;;11.00;99.90;;;;;;4889848;29;20052;-91
2023/04/30 01:30:27;;;;;;;57.83;27.55;;;11.00;99.90;;;;;;4898906;29;20044;-94
2023/04/30 01:32:52;;;;;;;60.80;27.75;;;11.00;99.90;;;;;;4884077;29;20041;-92
2023/04/30 01:35:18;;;;;;;59.75;29.17;;;10.90;99.90;;;;;;4882960;29;20072;-93
2023/04/30 01:38:02;;;;;;;62.40;27.88;;;10.90;99.90;;;;;;4884833;29;20033;-92
2023/04/30 01:41:03;;;;;;;73.50;29.33;;;10.90;99.90;;;;;;4885765;29;20028;-95
2023/04/30 01:43:33;;;;;;;63.20;28.08;;;10.90;99.90;;;;;;4879457;29;20057;-92
2023/04/30 01:46:15;;;;;;;65.10;29.00;;;10.90;99.90;;;;;;4883145;29;20033;-94
2023/04/30 01:49:05;;;;;;;52.05;26.00;;;10.90;99.90;;;;;;4882213;29;20029;-94
2023/04/30 01:51:40;;;;;;;44.67;21.98;;;10.90;99.90;;;;;;4877579;29;20088;-94
2023/04/30 01:54:26;;;;;;;54.35;25.77;;;10.90;99.90;;;;;;4884870;29;20061;-89
2023/04/30 01:57:04;;;;;;;55.15;25.50;;;10.90;99.90;;;;;;4889739;29;20054;-90
2023/04/30 01:59:34;;;;;;;58.88;26.65;;;10.90;99.90;;;;;;4905502;29;20017;-90
2023/04/30 02:02:01;;;;;;;54.28;25.33;;;10.80;99.90;;;;;;4882146;29;20049;-95
2023/04/30 02:04:26;;;;;;;49.70;23.77;;;10.80;99.90;;;;;;4883073;29;20075;-94
2023/04/30 02:06:52;;;;;;;53.97;24.88;;;10.80;99.90;;;;;;4885575;29;20033;-93
2023/04/30 02:09:18;;;;;;;49.15;23.65;;;10.80;99.90;;;;;;4885078;29;20035;-92
2023/04/30 02:11:44;;;;;;;58.90;25.67;;;10.80;99.90;;;;;;4876639;29;20033;-94
2023/04/30 02:14:09;;;;;;;61.22;26.05;;;10.80;99.90;;;;;;4877841;29;20057;-95
2023/04/30 02:16:35;;;;;;;51.92;24.23;;;10.70;99.90;;;;;;4881096;29;20043;-96
2023/04/30 02:19:01;;;;;;;61.05;29.10;;;10.80;99.90;;;;;;4875345;29;20048;-95
2023/04/30 02:21:27;;;;;;;61.78;29.40;;;10.70;99.90;;;;;;4875517;29;20060;-96
2023/04/30 02:23:53;;;;;;;71.07;31.10;;;10.70;99.90;;;;;;4879103;29;20056;-94
2023/04/30 02:26:20;;;;;;;80.88;34.63;;;10.70;99.90;;;;;;4870928;29;20081;-94
2023/04/30 02:28:45;;;;;;;78.32;32.58;;;10.70;99.90;;;;;;4873984;29;20036;-93
2023/04/30 02:31:11;;;;;;;74.15;33.00;;;10.70;99.90;;;;;;4876239;29;20100;-96
2023/04/30 02:33:37;;;;;;;76.18;31.23;;;10.70;99.90;;;;;;4874577;29;20108;-96
2023/04/30 02:36:03;;;;;;;69.75;29.73;;;10.70;99.90;;;;;;4875629;29;20029;-95
2023/04/30 02:38:28;;;;;;;75.22;30.50;;;10.70;99.90;;;;;;4876600;29;20069;-95
2023/04/30 02:40:54;;;;;;;77.63;32.67;;;10.70;99.90;;;;;;4877788;29;20056;-94
2023/04/30 02:43:20;;;;;;;75.72;33.45;;;10.70;99.90;;;;;;4880555;29;20046;-96
2023/04/30 02:45:46;;;;;;;82.13;34.50;;;10.70;99.90;;;;;;4879642;29;20033;-95
2023/04/30 02:48:11;;;;;;;77.85;31.83;;;10.70;99.90;;;;;;4881663;29;20029;-94
2023/04/30 02:50:37;;;;;;;76.40;33.10;;;10.70;99.90;;;;;;4877820;29;20424;-94
2023/04/30 02:53:03;;;;;;;79.78;33.08;;;10.70;99.90;;;;;;4871611;29;20029;-95
2023/04/30 02:55:29;;;;;;;78.00;33.92;;;10.70;99.90;;;;;;4872747;29;20029;-95
2023/04/30 02:57:55;;;;;;;77.15;32.08;;;10.70;99.90;;;;;;4881759;29;20017;-92
2023/04/30 03:00:21;;;;;;;73.68;32.47;;;10.70;99.90;;;;;;4884222;29;20041;-91
2023/04/30 03:02:47;;;;;;;76.88;33.25;;;10.70;99.90;;;;;;4887831;29;20037;-91
2023/04/30 03:05:14;;;;;;;71.05;32.70;;;10.70;99.90;;;;;;4884057;29;20035;-95
2023/04/30 03:07:40;;;;;;;76.07;31.38;;;10.70;99.90;;;;;;4879128;29;20033;-96
2023/04/30 03:10:07;;;;;;;77.00;32.55;;;10.70;99.90;;;;;;4884758;29;20297;-95
2023/04/30 03:12:32;;;;;;;70.95;32.00;;;10.70;99.90;;;;;;4884106;29;20101;-96
2023/04/30 03:14:58;;;;;;;75.68;33.38;;;10.70;99.90;;;;;;4884932;29;20025;-94
2023/04/30 03:17:25;;;;;;;72.22;31.60;;;10.70;99.90;;;;;;4882921;29;20044;-94
2023/04/30 03:19:50;;;;;;;71.72;30.50;;;10.70;99.90;;;;;;4883906;29;20017;-90
2023/04/30 03:22:18;;;;;;;79.00;33.72;;;10.70;99.90;;;;;;4888280;29;20048;-90
2023/04/30 03:24:45;;;;;;;77.78;32.38;;;10.80;99.90;;;;;;4888521;29;20045;-91
2023/04/30 03:27:11;;;;;;;75.68;33.65;;;10.70;99.90;;;;;;4887812;29;20025;-89
2023/04/30 03:29:37;;;;;;;82.97;33.05;;;10.70;99.90;;;;;;4888428;29;20048;-90
2023/04/30 03:32:02;;;;;;;77.75;31.55;;;10.70;99.90;;;;;;4888693;29;20065;-92
2023/04/30 03:34:30;;;;;;;71.00;29.77;;;10.70;99.90;;;;;;4887716;29;20045;-91
2023/04/30 03:36:56;;;;;;;75.82;32.63;;;10.70;99.90;;;;;;4888270;29;20044;-91
2023/04/30 03:39:21;;;;;;;75.43;32.25;;;10.70;99.90;;;;;;4887391;29;20017;-89
2023/04/30 03:41:48;;;;;;;72.13;30.35;;;10.70;99.90;;;;;;4887849;29;20069;-90
2023/04/30 03:44:14;;;;;;;72.50;32.53;;;10.60;99.90;;;;;;4888149;29;20021;-88
2023/04/30 03:46:42;;;;;;;72.32;30.80;;;10.60;99.90;;;;;;4888144;29;20037;-91
2023/04/30 03:49:08;;;;;;;72.50;31.80;;;10.60;99.90;;;;;;4887689;29;20045;-90
2023/04/30 03:51:38;;;;;;;74.82;32.72;;;10.70;99.90;;;;;;4878048;29;20079;-90
2023/04/30 03:54:05;;;;;;;80.87;33.70;;;10.70;99.90;;;;;;4869034;29;20021;-90
2023/04/30 03:56:31;;;;;;;73.03;32.17;;;10.70;99.90;;;;;;4884966;29;20338;-91
2023/04/30 03:58:57;;;;;;;73.00;31.73;;;10.70;99.90;;;;;;4886464;29;20025;-92
2023/04/30 04:01:23;;;;;;;73.63;30.95;;;10.70;99.90;;;;;;4885725;29;20045;-89
2023/04/30 04:03:49;;;;;;;76.22;33.10;;;10.70;99.90;;;;;;4886304;29;20025;-90
2023/04/30 04:06:15;;;;;;;80.15;32.97;;;10.70;99.90;;;;;;4886490;29;20017;-90
2023/04/30 04:08:42;;;;;;;78.97;32.53;;;10.70;99.90;;;;;;4886505;29;20025;-90
2023/04/30 04:11:11;;;;;;;76.63;32.28;;;10.70;99.90;;;;;;4884909;29;20021;-91
2023/04/30 04:13:37;;;;;;;76.15;33.65;;;10.70;99.90;;;;;;4884683;29;20131;-91
2023/04/30 04:16:03;;;;;;;77.88;33.22;;;10.70;99.90;;;;;;4902035;29;20025;-90
2023/04/30 04:18:28;;;;;;;78.65;34.08;;;10.70;99.90;;;;;;4884169;29;20044;-92
2023/04/30 04:20:55;;;;;;;79.85;32.33;;;10.70;99.90;;;;;;4885660;29;20021;-90
2023/04/30 04:23:22;;;;;;;67.85;31.23;;;10.70;99.90;;;;;;4900606;29;20065;-95
2023/04/30 04:25:51;;;;;;;70.70;30.73;;;10.70;99.90;;;;;;4886273;29;20017;-91
2023/04/30 04:28:16;;;;;;;71.03;30.35;;;10.70;99.90;;;;;;4886867;29;20047;-93
2023/04/30 04:30:42;;;;;;;77.05;32.63;;;10.70;99.90;;;;;;4884695;29;20036;-96
2023/04/30 04:33:10;;;;;;;73.43;31.02;;;10.70;99.90;;;;;;4902989;29;20029;-91
2023/04/30 04:35:36;;;;;;;77.55;31.75;;;10.70;99.90;;;;;;4886960;29;20037;-92
2023/04/30 04:38:02;;;;;;;81.05;32.90;;;10.80;99.90;;;;;;4886705;29;20051;-94
2023/04/30 04:40:27;;;;;;;66.90;28.70;;;10.80;99.90;;;;;;4885346;29;20033;-95
2023/04/30 04:42:54;;;;;;;70.05;31.27;;;10.80;99.90;;;;;;4882860;29;20029;-94
2023/04/30 04:45:20;;;;;;;73.22;31.70;;;10.70;99.90;;;;;;4883722;29;20039;-92
2023/04/30 04:47:46;;;;;;;71.28;30.67;;;10.80;99.90;;;;;;4883349;29;20065;-96
2023/04/30 04:50:12;;;;;;;78.22;32.20;;;10.70;99.90;;;;;;4876923;29;20092;-96
2023/04/30 04:52:38;;;;;;;78.10;32.38;;;10.80;99.90;;;;;;4874273;29;20025;-94
2023/04/30 04:55:04;;;;;;;71.28;32.10;;;10.80;99.90;;;;;;4873953;29;20483;-94
2023/04/30 04:57:30;;;;;;;72.65;31.13;;;10.80;99.90;;;;;;4880774;29;20025;-93
2023/04/30 04:59:56;;;;;;;75.75;32.75;;;10.80;99.90;;;;;;4884682;29;20036;-94
2023/04/30 05:02:22;;;;;;;63.72;29.70;;;10.90;99.90;;;;;;4883384;29;20041;-95
2023/04/30 05:04:49;;;;;;;66.65;29.80;;;10.90;99.90;;;;;;4879319;29;20041;-95
2023/04/30 05:07:16;;;;;;;73.30;31.05;;;10.90;99.90;;;;;;4872370;29;20093;-94
2023/04/30 05:09:46;;;;;;;71.90;33.42;;;10.90;99.90;;;;;;4872046;29;20090;-96
2023/04/30 05:12:13;;;;;;;66.30;30.58;;;10.90;99.90;;;;;;4879994;29;20021;-94
2023/04/30 05:14:39;;;;;;;84.68;34.63;;;10.90;99.90;;;;;;4880574;29;20553;-94
2023/04/30 05:17:08;;;;;;;71.32;31.40;;;10.90;99.90;;;;;;4877409;29;20066;-96
2023/04/30 05:19:34;;;;;;;80.70;33.05;;;10.90;99.90;;;;;;4881007;29;20510;-93
2023/04/30 05:22:00;;;;;;;79.45;33.85;;;10.90;99.90;;;;;;4875216;29;20041;-94
2023/04/30 05:24:27;;;;;;;80.18;34.50;;;10.90;99.90;;;;;;4872844;29;20033;-92
2023/04/30 05:26:52;;;;;;;65.63;29.33;;;10.90;99.90;;;;;;4857444;29;20065;-92
2023/04/30 05:29:18;;;;;;;75.65;32.45;;;10.90;99.90;;;;;;4859632;29;20030;-96
2023/04/30 05:31:44;;;;;;;76.07;31.70;;;10.90;99.90;;;;;;4863648;29;20093;-95
2023/04/30 05:34:09;;;;;;;75.03;33.28;;;11.00;99.90;;;;;;4862724;29;20050;-90
2023/04/30 05:36:37;;;;;;;86.55;35.30;;;11.00;99.90;;;;;;4849462;29;20042;-90
2023/04/30 05:39:03;;;;;;;78.55;34.58;;;11.00;99.90;;;;;;4859905;29;20033;-90
2023/04/30 05:41:29;;;;;;;78.18;33.40;;;11.00;99.90;;;;;;4849500;29;20053;-93
2023/04/30 05:43:54;;;;;;;51.70;25.65;;;11.00;99.90;;;;;;4849345;29;20014;-91
2023/04/30 05:46:20;;;;;;;68.38;32.97;;;11.10;99.90;;;;;;4848790;29;20055;-91
2023/04/30 05:48:47;;;;;;;77.80;34.03;;;11.10;99.90;;;;;;4848930;29;20073;-91
2023/04/30 05:51:12;;;;;;;64.00;30.63;;;11.10;99.90;;;;;;4849262;29;20028;-93
2023/04/30 05:53:38;;;;;;;68.82;33.72;;;11.10;99.90;;;;;;4841730;29;20069;-96
2023/04/30 05:56:04;;;;;;;75.28;35.17;;;11.20;99.90;;;;;;4840033;29;20030;-96
2023/04/30 05:58:30;;;;;;;71.57;32.53;;;11.20;99.90;;;;;;4840417;29;20045;-94
2023/04/30 06:00:56;;;;;;;63.08;32.35;;;11.20;99.90;;;;;;4844345;29;20038;-90
2023/04/30 06:03:22;;;;;;;57.40;28.50;;;11.20;99.90;;;;;;4852398;29;20060;-91
2023/04/30 06:05:48;;;;;;;56.20;25.83;;;11.20;99.90;;;;;;4852109;29;20034;-90
2023/04/30 06:08:14;;;;;;;48.53;24.65;;;11.30;99.90;;;;;;4849207;29;20048;-95
2023/04/30 06:10:40;;;;;;;52.40;26.70;;;11.30;99.90;;;;;;4850559;29;20034;-95
2023/04/30 06:13:05;;;;;;;58.03;27.20;;;11.30;99.90;;;;;;4833188;29;20037;-94
2023/04/30 06:15:33;;;;;;;57.55;28.05;;;11.30;99.90;;;;;;4833421;29;20045;-95
2023/04/30 06:17:58;;;;;;;54.65;26.38;;;11.30;99.90;;;;;;4837685;29;20030;-92
2023/04/30 06:20:25;;;;;;;53.20;27.25;;;11.30;99.90;;;;;;4833705;29;20432;-93
2023/04/30 06:22:51;;;;;;;47.97;25.85;;;11.40;99.90;;;;;;4863234;29;20046;-94
2023/04/30 06:25:17;;;;;;;44.80;22.63;;;11.40;99.90;;;;;;4849570;29;20025;-94
2023/04/30 06:27:43;;;;;;;46.88;24.17;;;11.40;99.90;;;;;;4848277;29;20044;-94
2023/04/30 06:30:09;;;;;;;49.58;25.00;;;11.60;99.90;;;;;;4848729;29;20608;-93
2023/04/30 06:32:34;;;;;;;46.70;23.65;;;11.60;99.90;;;;;;4863504;29;20037;-94
2023/04/30 06:35:00;;;;;;;46.83;24.83;;;11.60;99.90;;;;;;4866778;29;20061;-94
2023/04/30 06:37:26;;;;;;;56.42;26.77;;;11.70;99.90;;;;;;4866533;29;20062;-93
2023/04/30 06:39:51;;;;;;;44.17;23.08;;;11.80;99.90;;;;;;4865574;29;20025;-93
2023/04/30 06:42:17;;;;;;;43.53;22.60;;;11.80;99.90;;;;;;4865067;29;20495;-93
2023/04/30 06:44:42;;;;;;;43.90;21.83;;;11.90;99.90;;;;;;4865296;29;20120;-94
2023/04/30 06:47:08;;;;;;;42.67;22.45;;;12.00;99.90;;;;;;4866434;29;20120;-94
2023/04/30 06:49:34;;;;;;;46.78;22.67;;;12.00;99.90;;;;;;4865804;29;20025;-93
2023/04/30 06:52:00;;;;;;;42.28;20.92;;;12.00;99.90;;;;;;4865375;29;20033;-94
2023/04/30 06:54:26;;;;;;;39.60;19.45;;;12.10;99.90;;;;;;4864871;29;20061;-94
2023/04/30 06:56:52;;;;;;;40.47;20.75;;;12.10;99.90;;;;;;4865163;29;20036;-94
2023/04/30 06:59:18;;;;;;;35.08;18.40;;;12.10;99.90;;;;;;4865030;29;20036;-94
2023/04/30 07:01:44;;;;;;;36.35;19.20;;;12.20;99.90;;;;;;4865913;29;20029;-94
2023/04/30 07:04:09;;;;;;;30.77;17.25;;;12.20;99.90;;;;;;4865304;29;20025;-93
2023/04/30 07:06:35;;;;;;;35.60;17.13;;;12.10;99.90;;;;;;4865018;29;20027;-93
2023/04/30 07:09:01;;;;;;;33.85;15.43;;;12.10;99.90;;;;;;4864824;29;20033;-93
2023/04/30 07:11:27;;;;;;;34.22;17.42;;;12.20;99.90;;;;;;4864853;29;20036;-94
2023/04/30 07:13:52;;;;;;;26.90;14.52;;;12.20;99.90;;;;;;4865222;29;20029;-94
2023/04/30 07:16:18;;;;;;;27.73;15.15;;;12.20;99.90;;;;;;4864764;29;20112;-95
2023/04/30 07:18:47;;;;;;;26.52;14.07;;;12.30;99.90;;;;;;4864293;29;20033;-93
2023/04/30 07:21:13;;;;;;;24.42;13.75;;;12.30;99.90;;;;;;4864524;29;20037;-93
2023/04/30 07:23:39;;;;;;;27.77;14.48;;;12.40;99.90;;;;;;4865338;29;20031;-94
2023/04/30 07:26:04;;;;;;;25.35;13.52;;;12.50;99.90;;;;;;4864520;29;20388;-92
2023/04/30 07:28:30;;;;;;;24.63;13.60;;;12.60;99.90;;;;;;4864664;29;20029;-92
2023/04/30 07:30:56;;;;;;;22.20;12.35;;;12.60;99.90;;;;;;4864395;29;20451;-91
2023/04/30 07:33:21;;;;;;;21.65;12.27;;;12.60;99.90;;;;;;4863879;29;20080;-91
2023/04/30 07:35:47;;;;;;;19.17;11.25;;;12.60;99.90;;;;;;4864581;29;20032;-92
2023/04/30 07:38:13;;;;;;;20.33;12.18;;;12.70;99.90;;;;;;4864344;29;20506;-90
2023/04/30 07:40:38;;;;;;;24.10;11.02;;;12.70;99.90;;;;;;4866315;29;20024;-93
2023/04/30 07:43:04;;;;;;;14.32;8.20;;;12.80;99.90;;;;;;4863892;29;20037;-92
2023/04/30 07:45:30;;;;;;;18.58;10.00;;;12.80;99.90;;;;;;4879740;29;20033;-92
2023/04/30 07:47:56;;;;;;;18.55;10.07;;;12.90;99.90;;;;;;4863490;29;20065;-93
2023/04/30 07:50:22;;;;;;;13.75;7.80;;;12.90;99.90;;;;;;4863613;29;20033;-94
2023/04/30 07:52:51;;;;;;;17.08;9.77;;;13.00;99.90;;;;;;4863868;29;20085;-93
2023/04/30 07:55:17;;;;;;;17.98;8.60;;;13.10;99.90;;;;;;4863905;29;20025;-93
2023/04/30 07:57:42;;;;;;;14.38;8.98;;;13.20;99.90;;;;;;4880730;29;20069;-94
2023/04/30 08:00:08;;;;;;;17.98;10.30;;;13.30;99.90;;;;;;4866893;29;20390;-92
2023/04/30 08:02:34;;;;;;;16.25;9.35;;;13.30;99.90;;;;;;4868967;29;20048;-93
2023/04/30 08:04:59;;;;;;;21.35;9.73;;;13.40;99.90;;;;;;4867354;29;20033;-95
2023/04/30 08:07:25;;;;;;;15.40;8.73;;;13.50;99.90;;;;;;4873587;29;20308;-92
2023/04/30 08:09:51;;;;;;;20.73;10.05;;;13.60;99.90;;;;;;4865371;29;20574;-93
2023/04/30 08:12:17;;;;;;;15.75;9.40;;;13.60;99.90;;;;;;4865576;29;20025;-94
2023/04/30 08:14:43;;;;;;;19.85;10.07;;;13.80;99.90;;;;;;4865208;29;20027;-93
2023/04/30 08:17:08;;;;;;;15.60;8.40;;;13.80;99.90;;;;;;4864314;29;20112;-93
2023/04/30 08:19:34;;;;;;;15.57;9.13;;;13.80;99.90;;;;;;4864573;29;20044;-93
2023/04/30 08:22:00;;;;;;;14.05;8.57;;;13.90;99.90;;;;;;4879848;29;20038;-93
2023/04/30 08:24:25;;;;;;;13.30;8.65;;;13.90;99.90;;;;;;4867477;29;20393;-94
2023/04/30 08:26:51;;;;;;;17.10;9.18;;;14.00;99.90;;;;;;4868267;29;20124;-92
2023/04/30 08:29:17;;;;;;;19.23;9.23;;;14.00;99.90;;;;;;4864230;29;20054;-91
2023/04/30 08:31:42;;;;;;;16.02;8.68;;;14.00;99.90;;;;;;4864151;29;20072;-93
2023/04/30 08:34:08;;;;;;;22.10;9.02;;;14.10;99.90;;;;;;4864286;29;20135;-93
2023/04/30 08:36:34;;;;;;;14.93;8.68;;;14.10;99.90;;;;;;4864489;29;20576;-93
2023/04/30 08:39:00;;;;;;;14.38;8.52;;;14.10;99.90;;;;;;4864115;29;20037;-93
2023/04/30 08:41:31;;;;;;;13.02;7.47;;;14.10;99.90;;;;;;4865117;29;20036;-94
2023/04/30 08:44:00;;;;;;;13.63;8.18;;;14.10;99.90;;;;;;4866252;29;20037;-93
2023/04/30 08:46:27;;;;;;;14.60;7.38;;;14.00;99.90;;;;;;4882708;29;20025;-93
2023/04/30 08:48:53;;;;;;;12.68;7.60;;;14.00;99.90;;;;;;4866781;29;20062;-94
2023/04/30 08:51:20;;;;;;;15.82;8.52;;;14.00;99.90;;;;;;4875030;29;20029;-94
2023/04/30 08:53:49;;;;;;;14.40;8.23;;;14.00;99.90;;;;;;4877902;29;20115;-91
2023/04/30 08:56:16;;;;;;;15.68;8.13;;;14.00;99.90;;;;;;4879043;29;20029;-92
2023/04/30 08:58:42;;;;;;;14.35;8.55;;;14.00;99.90;;;;;;4879978;29;20013;-94
2023/04/30 09:01:09;;;;;;;13.00;8.20;;;14.10;99.90;;;;;;4864441;29;20029;-95
2023/04/30 09:03:36;;;;;;;13.85;8.70;;;14.10;99.90;;;;;;4865565;29;20041;-92
2023/04/30 09:06:02;;;;;;;15.43;7.75;;;14.10;99.90;;;;;;4867188;29;20085;-94
2023/04/30 09:08:50;;;;;;;16.15;8.38;;;14.20;99.90;;;;;;4866327;29;20033;-93
2023/04/30 09:11:30;;;;;;;15.77;8.60;;;14.20;99.90;;;;;;4867150;29;20022;-94
2023/04/30 09:14:00;;;;;;;12.85;7.55;;;14.20;99.90;;;;;;4871502;29;20037;-95
2023/04/30 09:16:31;;;;;;;15.67;8.90;;;14.20;99.90;;;;;;4864746;29;20029;-95
2023/04/30 09:18:57;;;;;;;16.55;9.13;;;14.20;99.90;;;;;;4864005;29;20025;-94
2023/04/30 09:21:36;;;;;;;17.58;9.77;;;14.20;99.90;;;;;;4863952;29;20088;-93
2023/04/30 09:24:04;;;;;;;15.30;8.52;;;14.20;99.90;;;;;;4865096;29;20487;-94
2023/04/30 09:26:35;;;;;;;17.63;9.93;;;14.20;99.90;;;;;;4878692;29;20049;-94
2023/04/30 09:29:06;;;;;;;19.98;10.82;;;14.20;99.90;;;;;;4864576;29;20025;-95
2023/04/30 09:31:32;;;;;;;18.70;9.77;;;14.10;99.90;;;;;;4862675;29;20025;-93
2023/04/30 09:33:58;;;;;;;18.10;10.18;;;14.00;99.90;;;;;;4862634;29;20056;-94
2023/04/30 09:36:23;;;;;;;18.17;10.15;;;14.00;99.90;;;;;;4863832;29;20029;-91
2023/04/30 09:38:49;;;;;;;19.92;9.73;;;14.00;99.90;;;;;;4884130;29;20025;-94
2023/04/30 09:41:26;;;;;;;20.52;11.85;;;14.00;99.90;;;;;;4868515;29;20491;-95
2023/04/30 09:43:56;;;;;;;20.83;11.48;;;14.10;99.90;;;;;;4882153;29;20136;-93
2023/04/30 09:46:30;;;;;;;24.60;12.10;;;14.10;99.90;;;;;;4865785;29;20029;-89
2023/04/30 09:48:58;;;;;;;20.55;12.55;;;14.10;99.90;;;;;;4866600;29;20029;-91
2023/04/30 09:51:24;;;;;;;23.42;12.93;;;14.20;99.90;;;;;;4888456;29;20040;-91
2023/04/30 09:53:51;;;;;;;22.70;11.70;;;14.20;99.90;;;;;;4875651;29;20410;-92
2023/04/30 09:56:23;;;;;;;19.27;11.75;;;14.20;99.90;;;;;;4872950;29;20486;-93
2023/04/30 09:58:53;;;;;;;18.05;10.77;;;14.10;99.90;;;;;;4889713;29;20025;-91
2023/04/30 10:01:26;;;;;;;20.50;12.18;;;14.10;99.90;;;;;;4869621;29;20037;-89
2023/04/30 10:03:52;;;;;;;21.98;11.65;;;14.10;99.90;;;;;;4870333;29;20036;-89
2023/04/30 10:06:20;;;;;;;20.35;12.82;;;14.10;99.90;;;;;;4867454;29;20052;-89
2023/04/30 10:08:56;;;;;;;21.27;12.68;;;14.10;99.90;;;;;;4862303;29;20037;-88
2023/04/30 10:11:27;;;;;;;19.13;11.63;;;14.00;99.90;;;;;;4863802;29;20044;-91
2023/04/30 10:14:02;;;;;;;20.58;12.07;;;14.00;99.90;;;;;;4863453;29;20035;-92
2023/04/30 10:16:48;;;;;;;20.80;11.98;;;14.10;99.90;;;;;;4866594;29;20112;-90
2023/04/30 10:19:19;;;;;;;24.23;11.57;;;14.10;99.90;;;;;;4864553;29;20021;-88
2023/04/30 10:21:46;;;;;;;20.60;10.38;;;14.20;99.90;;;;;;4869294;29;20044;-89
2023/04/30 10:24:19;;;;;;;14.52;8.90;;;14.20;99.90;;;;;;4868692;29;20040;-90
2023/04/30 10:26:46;;;;;;;16.85;8.75;;;14.20;99.90;;;;;;4869013;29;20033;-91
2023/04/30 10:29:14;;;;;;;16.77;8.82;;;14.20;99.90;;;;;;4869189;29;20078;-89
2023/04/30 10:31:41;;;;;;;16.98;9.07;;;14.10;99.90;;;;;;4884831;29;20037;-90
2023/04/30 10:34:27;;;;;;;14.60;8.90;;;14.10;99.90;;;;;;4866458;29;20044;-91
2023/04/30 10:36:59;;;;;;;13.93;7.97;;;14.10;99.90;;;;;;4864246;29;20033;-93
2023/04/30 10:39:29;;;;;;;14.10;6.85;;;14.10;99.90;;;;;;4863298;29;20097;-92
2023/04/30 10:42:05;;;;;;;10.45;6.80;;;14.10;99.90;;;;;;4863681;29;20045;-93
2023/04/30 10:44:37;;;;;;;12.20;6.60;;;14.00;99.90;;;;;;4860666;29;20025;-92
2023/04/30 10:47:06;;;;;;;13.45;7.22;;;14.00;99.90;;;;;;4865441;29;20124;-90
2023/04/30 10:49:32;;;;;;;12.43;7.25;;;14.00;99.90;;;;;;4863065;29;20029;-90
2023/04/30 10:51:59;;;;;;;12.18;5.95;;;14.10;99.90;;;;;;4865851;29;20094;-92
2023/04/30 10:54:35;;;;;;;12.13;6.65;;;14.20;99.90;;;;;;4866006;29;20479;-89
2023/04/30 10:57:16;;;;;;;9.13;5.18;;;14.10;99.90;;;;;;4865922;29;20041;-91
2023/04/30 10:59:45;;;;;;;7.93;4.80;;;14.20;99.90;;;;;;4866230;29;20022;-90
2023/04/30 11:02:14;;;;;;;7.22;4.18;;;14.10;99.70;;;;;;4882776;29;20435;-92
2023/04/30 11:05:05;;;;;;;5.53;4.20;;;14.00;99.50;;;;;;4865760;29;20053;-92
2023/04/30 11:07:30;;;;;;;9.50;4.50;;;14.00;99.90;;;;;;4864649;29;20097;-92
2023/04/30 11:09:57;;;;;;;5.72;3.85;;;13.90;99.40;;;;;;4865845;29;20037;-94
2023/04/30 11:12:28;;;;;;;8.02;4.22;;;13.90;99.50;;;;;;4865988;29;20029;-94
2023/04/30 11:15:06;;;;;;;6.85;3.72;;;13.90;99.50;;;;;;4870159;29;20033;-93
2023/04/30 11:17:32;;;;;;;5.35;3.28;;;13.90;99.70;;;;;;4865419;29;20102;-93
2023/04/30 11:20:01;;;;;;;5.05;3.20;;;13.90;99.80;;;;;;4864830;29;20028;-91
2023/04/30 11:22:34;;;;;;;6.22;3.50;;;13.90;98.80;;;;;;4865738;29;20124;-92
2023/04/30 11:25:09;;;;;;;6.45;2.35;;;13.90;98.70;;;;;;4866230;29;20025;-93
2023/04/30 11:27:37;;;;;;;5.55;3.00;;;14.00;98.50;;;;;;4865025;29;20076;-92
2023/04/30 11:30:10;;;;;;;4.55;2.90;;;14.00;98.50;;;;;;4867023;29;20084;-93
2023/04/30 11:32:39;;;;;;;7.15;3.50;;;14.00;99.00;;;;;;4862608;29;20530;-92
2023/04/30 11:35:05;;;;;;;8.15;3.67;;;14.10;98.90;;;;;;4863327;29;20037;-92
2023/04/30 11:37:34;;;;;;;5.90;3.55;;;14.20;99.00;;;;;;4873409;29;20388;-93
2023/04/30 11:40:02;;;;;;;7.93;4.25;;;14.10;98.80;;;;;;4851989;29;20034;-93
2023/04/30 11:42:30;;;;;;;6.97;4.15;;;14.20;99.00;;;;;;4850141;29;20033;-92
2023/04/30 11:45:03;;;;;;;7.68;4.40;;;14.10;98.90;;;;;;4862510;29;20033;-90
2023/04/30 11:47:41;;;;;;;7.38;4.47;;;14.20;98.50;;;;;;4863968;29;20024;-93
2023/04/30 11:50:11;;;;;;;8.25;4.70;;;14.30;98.00;;;;;;4865091;29;20052;-91
2023/04/30 11:52:38;;;;;;;9.15;5.00;;;14.30;97.70;;;;;;4865094;29;20452;-91
2023/04/30 11:55:15;;;;;;;6.65;3.95;;;14.40;98.00;;;;;;4865581;29;20025;-92
2023/04/30 11:57:43;;;;;;;10.98;6.18;;;14.40;98.00;;;;;;4870399;29;20029;-93
2023/04/30 12:00:13;;;;;;;10.43;6.30;;;14.40;97.10;;;;;;4872627;29;20036;-93
2023/04/30 12:02:41;;;;;;;12.93;6.75;;;14.40;97.40;;;;;;4875104;29;20044;-92
2023/04/30 12:05:18;;;;;;;11.93;7.53;;;14.60;97.20;;;;;;4873410;29;20025;-92
2023/04/30 12:08:11;;;;;;;13.10;7.57;;;14.70;97.50;;;;;;4873780;29;20037;-92
2023/04/30 12:10:36;;;;;;;11.77;7.63;;;14.90;97.80;;;;;;4876930;29;20468;-91
2023/04/30 12:13:02;;;;;;;14.27;8.60;;;15.00;97.30;;;;;;4882758;29;20037;-92
2023/04/30 12:15:28;;;;;;;15.48;8.23;;;15.10;97.40;;;;;;4874698;29;20033;-92
2023/04/30 12:17:55;;;;;;;15.45;8.60;;;15.40;97.30;;;;;;4868800;29;20124;-92
2023/04/30 12:20:25;;;;;;;13.38;7.50;;;15.60;97.30;;;;;;4865506;29;20072;-92
2023/04/30 12:22:51;;;;;;;10.40;6.35;;;15.80;96.90;;;;;;4866168;29;20045;-91
2023/04/30 12:25:18;;;;;;;17.30;8.95;;;15.90;95.80;;;;;;4865228;29;20161;-92
2023/04/30 12:27:46;;;;;;;15.68;9.07;;;15.90;95.60;;;;;;4864960;29;20037;-93
2023/04/30 12:30:13;;;;;;;14.63;9.68;;;16.00;95.10;;;;;;4866970;29;20025;-92
2023/04/30 12:32:49;;;;;;;16.55;8.70;;;16.10;94.40;;;;;;4867715;29;20055;-92
2023/04/30 12:35:20;;;;;;;16.02;9.32;;;16.20;93.80;;;;;;4865141;29;20048;-92